createdAt,value
2018-01-17T00:12:48.123Z,1.4
2018-01-17T00:27:48.127Z,1.3
2018-01-17T00:42:48.054Z,1.6
2018-01-17T00:57:48.080Z,1.2
2018-01-17T01:17:48.128Z,0.7
2018-01-17T01:32:48.235Z,0.7
2018-01-17T01:47:48.240Z,0.7
2018-01-17T02:07:48.247Z,0.8
2018-01-17T02:22:48.394Z,0.9
2018-01-17T02:37:58.198Z,0.8
2018-01-17T02:52:48.250Z,0.8
2018-01-17T03:12:48.374Z,0.7
2018-01-17T03:27:48.268Z,1
2018-01-17T03:42:48.490Z,1.2
2018-01-17T04:02:48.450Z,1.6
2018-01-17T04:17:48.295Z,1.4
2018-01-17T04:32:48.473Z,0.8
2018-01-17T04:48:05.037Z,0.8
2018-01-17T05:37:48.485Z,0.8
2018-01-17T05:57:48.496Z,2
2018-01-17T06:12:48.427Z,1.3
2018-01-17T06:27:48.364Z,1.6
2018-01-17T06:42:48.441Z,1.8
2018-01-17T07:02:48.559Z,1.3
2018-01-17T07:17:48.645Z,1.3
2018-01-17T07:32:48.371Z,1
2018-01-17T07:52:48.391Z,1
2018-01-17T08:07:48.526Z,0.4
2018-01-17T08:22:48.541Z,1.1
2018-01-17T08:37:48.440Z,1.4
2018-01-17T08:57:48.568Z,1.1
2018-01-17T09:12:48.717Z,2.2
2018-01-17T09:27:48.440Z,0.8
2018-01-17T09:47:48.579Z,0.6
2018-01-17T10:02:48.458Z,0.9
2018-01-17T10:17:48.634Z,0.9
2018-01-17T10:32:48.582Z,1.6
2018-01-17T10:52:48.614Z,1.1
2018-01-17T11:07:48.866Z,1.7
2018-01-17T11:22:58.590Z,1.5
2018-01-17T11:42:48.499Z,1.6
2018-01-17T11:57:48.709Z,0.9
2018-01-17T12:12:48.614Z,1.4
2018-01-17T12:27:48.766Z,1.5
2018-01-17T12:47:48.661Z,1.5
2018-01-17T13:02:48.969Z,1
2018-01-17T13:17:48.828Z,0.8
2018-01-17T13:37:50.936Z,1.3
2018-01-17T14:07:48.928Z,1.4
2018-01-17T14:22:48.663Z,1.5
2018-01-17T14:42:48.869Z,2.1
2018-01-17T14:57:48.677Z,1.4
2018-01-17T15:12:48.659Z,1.6
2018-01-17T15:32:48.730Z,1.9
2018-01-17T15:47:48.637Z,1.3
2018-01-17T16:02:50.401Z,2.1
2018-01-17T16:37:48.878Z,1.8
2018-01-17T16:52:49.454Z,2.2
2018-01-17T17:07:48.823Z,3.1
2018-01-17T17:27:49.103Z,2.5
2018-01-17T17:42:48.817Z,2.2
2018-01-17T17:57:49.434Z,2.1
2018-01-17T18:12:50.226Z,2
2018-01-17T18:32:49.078Z,2.2
2018-01-17T18:47:48.889Z,3.4
2018-01-17T19:02:51.432Z,3.5
2018-01-17T19:17:48.970Z,2.3
2018-01-17T19:37:50.382Z,2.7
2018-01-17T19:52:50.128Z,2.3
2018-01-17T20:07:48.999Z,2.4
2018-01-17T20:27:49.684Z,2.1
2018-01-17T20:42:49.846Z,2.4
2018-01-17T20:57:48.860Z,2
2018-01-17T21:12:48.808Z,2.7
2018-01-17T21:32:49.281Z,2
2018-01-17T21:47:51.022Z,2.5
2018-01-17T22:02:49.587Z,2.5
2018-01-17T22:22:49.774Z,2.8
2018-01-17T22:37:49.755Z,1.9
2018-01-17T22:52:50.646Z,2.6
2018-01-17T23:07:50.359Z,3.2
2018-01-17T23:27:49.691Z,2.4
2018-01-17T23:42:49.915Z,2.6
